CheckWX is a tool to help pilots better visualize weather data.  It is not intended as a substitute for an official pre-flight weather briefing.

13:19:13 UTC

KHGR METAR
Hagerstown Regional-Richard A Henson Field Airport
Hagerstown, Maryland, USA
Current

26 mins ago

KHGR 211253Z 00000KT 10SM CLR 17/12 A3027 RMK AO2 SLP258 T01720117
Observed
Sep-21 @ 12:53 UTC
Visibility
10 SM
Flight Rules
VFR
Cloud Levels
  • Clear skies
Temperature
17°C / 63°F
Dewpoint
12°C / 54°F
Humidity
73%
Altimeter
30.27" Hg
Pressure
1025.02 hPa
Previous

1 hour ago

KHGR 211153Z 00000KT 10SM CLR 14/11 A3026 RMK AO2 SLP256 T01440111 10172 20144 53010
Observed
Sep-21 @ 11:53 UTC
Visibility
10 SM
Flight Rules
VFR
Cloud Levels
  • Clear skies
Temperature
14°C / 57°F
Dewpoint
11°C / 52°F
Humidity
82%
Altimeter
30.26" Hg
Pressure
1024.72 hPa
Previous

2 hours ago

KHGR 211053Z 10003KT 10SM CLR 15/11 A3025 RMK AO2 SLP250 T01500111
Observed
Sep-21 @ 10:53 UTC
Wind
  • 100° at 3 KTS
Visibility
10 SM
Flight Rules
VFR
Cloud Levels
  • Clear skies
Temperature
15°C / 59°F
Dewpoint
11°C / 52°F
Humidity
77%
Altimeter
30.25" Hg
Pressure
1024.42 hPa